Time;durP1;ratioP1;P1;durP2;ratioP2;P2;SDS_P1;SDS_P2;PMS_P1;PMS_P2;Temp;Humidity;BMP_temperature;BMP_pressure;BME280_temperature;BME280_humidity;BME280_pressure;Samples;Min_cycle;Max_cycle;Signal;HPM_P1;HPM_P2
2024/01/12 00:01:15;;;;;;;38.40;26.40;;;;;;;-0.02;100.00;103210.50;5283455;28;20111;-73
2024/01/12 00:03:46;;;;;;;40.55;25.75;;;;;;;-0.05;100.00;103217.06;5283148;28;20101;-73
2024/01/12 00:06:18;;;;;;;41.67;24.63;;;;;;;-0.07;100.00;103209.25;5283165;28;20036;-73
2024/01/12 00:08:49;;;;;;;47.13;25.77;;;;;;;-0.03;100.00;103208.69;5283503;28;20024;-73
2024/01/12 00:11:20;;;;;;;41.67;26.23;;;;;;;-0.10;100.00;103214.16;5283517;28;20028;-73
2024/01/12 00:13:52;;;;;;;35.10;23.07;;;;;;;-0.03;100.00;103211.25;5282034;28;20033;-72
2024/01/12 00:16:23;;;;;;;41.77;24.80;;;;;;;-0.08;100.00;103215.19;5282828;28;20102;-73
2024/01/12 00:18:54;;;;;;;37.23;24.03;;;;;;;-0.06;100.00;103211.03;5283158;28;20392;-73
2024/01/12 00:21:26;;;;;;;38.07;23.73;;;;;;;-0.01;100.00;103207.13;5283407;28;20499;-74
2024/01/12 00:23:57;;;;;;;39.67;23.77;;;;;;;0.03;100.00;103204.78;5283079;28;20468;-73
2024/01/12 00:26:28;;;;;;;36.27;23.43;;;;;;;0.03;100.00;103210.78;5283468;28;20113;-73
2024/01/12 00:29:00;;;;;;;43.53;25.83;;;;;;;0.01;100.00;103204.66;5282747;28;20119;-73
2024/01/12 00:31:32;;;;;;;35.70;22.83;;;;;;;0.04;100.00;103202.31;5283014;28;20071;-73
2024/01/12 00:34:03;;;;;;;39.13;23.92;;;;;;;0.02;100.00;103214.16;5282955;28;20124;-73
2024/01/12 00:36:35;;;;;;;33.17;21.83;;;;;;;0.04;100.00;103210.00;5282529;28;20551;-72
2024/01/12 00:39:07;;;;;;;42.07;24.23;;;;;;;-0.03;100.00;103212.94;5282791;28;20403;-73
2024/01/12 00:41:39;;;;;;;41.05;25.67;;;;;;;0.03;100.00;103221.03;5282497;28;20025;-72
2024/01/12 00:44:10;;;;;;;41.77;25.50;;;;;;;-0.03;100.00;103211.25;5283058;28;20537;-72
2024/01/12 00:46:44;;;;;;;37.83;23.47;;;;;;;0.00;100.00;103210.59;5281498;28;20048;-73
2024/01/12 00:49:15;;;;;;;36.85;24.02;;;;;;;0.04;100.00;103209.13;5282657;28;20040;-72
2024/01/12 00:51:47;;;;;;;35.70;23.20;;;;;;;0.05;100.00;103213.44;5282802;28;20029;-73
2024/01/12 00:54:26;;;;;;;35.35;23.30;;;;;;;-0.03;100.00;103220.63;5282794;28;20119;-72
2024/01/12 00:56:57;;;;;;;32.65;22.33;;;;;;;-0.03;100.00;103218.97;5282283;28;20048;-72
2024/01/12 00:59:29;;;;;;;45.93;25.27;;;;;;;-0.01;100.00;103216.50;5282825;28;20487;-71
2024/01/12 01:02:00;;;;;;;39.10;25.23;;;;;;;0.01;100.00;103212.34;5282533;28;20048;-72
2024/01/12 01:04:31;;;;;;;38.87;25.10;;;;;;;0.05;100.00;103224.63;5282907;28;20047;-72
2024/01/12 01:07:03;;;;;;;36.77;23.60;;;;;;;-0.02;100.00;103225.88;5282551;28;20107;-72
2024/01/12 01:09:34;;;;;;;39.77;23.73;;;;;;;0.02;100.00;103218.38;5282404;28;20087;-72
2024/01/12 01:12:06;;;;;;;40.17;23.43;;;;;;;0.06;100.00;103218.69;5282695;28;20427;-72
2024/01/12 01:14:37;;;;;;;37.70;24.27;;;;;;;0.01;100.00;103214.94;5282859;28;20433;-73
2024/01/12 01:17:09;;;;;;;35.53;23.03;;;;;;;0.06;100.00;103212.69;5286724;28;20032;-72
2024/01/12 01:19:40;;;;;;;46.50;26.37;;;;;;;0.07;100.00;103222.16;5286520;28;20072;-72
2024/01/12 01:22:11;;;;;;;45.20;25.80;;;;;;;0.05;100.00;103226.28;5286465;28;20039;-72
2024/01/12 01:24:43;;;;;;;60.73;25.00;;;;;;;0.09;100.00;103225.72;5286922;28;20032;-73
2024/01/12 01:27:14;;;;;;;39.63;24.13;;;;;;;0.10;100.00;103232.66;5286635;28;20067;-72
2024/01/12 01:29:45;;;;;;;44.30;26.53;;;;;;;-0.04;100.00;103229.09;5286421;28;20028;-72
2024/01/12 01:32:17;;;;;;;37.27;24.20;;;;;;;-0.01;100.00;103234.44;5286271;28;20483;-72
2024/01/12 01:34:49;;;;;;;42.23;25.63;;;;;;;-0.03;100.00;103247.16;5286171;28;20452;-72
2024/01/12 01:37:20;;;;;;;41.80;25.27;;;;;;;-0.02;100.00;103248.03;5286809;28;20464;-72
2024/01/12 01:39:51;;;;;;;43.57;25.37;;;;;;;-0.02;100.00;103245.47;5286131;28;20380;-72
2024/01/12 01:42:23;;;;;;;40.67;23.20;;;;;;;-0.03;100.00;103251.41;5286413;28;20358;-72
2024/01/12 01:44:54;;;;;;;39.57;25.70;;;;;;;-0.05;100.00;103260.66;5285769;28;20029;-72
2024/01/12 01:47:26;;;;;;;36.50;22.97;;;;;;;-0.06;100.00;103266.56;5286175;28;20497;-72
2024/01/12 01:49:58;;;;;;;37.63;24.30;;;;;;;-0.06;100.00;103264.91;5286034;28;20375;-72
2024/01/12 01:52:30;;;;;;;41.00;24.15;;;;;;;-0.05;100.00;103263.22;5284550;28;20036;-73
2024/01/12 01:55:01;;;;;;;39.77;24.43;;;;;;;-0.03;100.00;103262.53;5285987;28;20049;-72
2024/01/12 01:57:34;;;;;;;36.47;23.17;;;;;;;-0.04;100.00;103255.63;5285930;28;20029;-73
2024/01/12 02:00:05;;;;;;;40.20;24.95;;;;;;;0.00;100.00;103256.75;5285903;28;20353;-73
2024/01/12 02:02:38;;;;;;;39.73;24.27;;;;;;;0.05;100.00;103251.91;5285890;28;20062;-73
2024/01/12 02:05:10;;;;;;;40.25;24.20;;;;;;;0.04;100.00;103250.16;5284902;28;20332;-72
2024/01/12 02:07:42;;;;;;;36.17;21.88;;;;;;;0.00;100.00;103246.50;5285669;28;20024;-72
2024/01/12 02:10:13;;;;;;;35.13;22.57;;;;;;;0.02;100.00;103239.78;5284312;28;20387;-73
2024/01/12 02:12:45;;;;;;;41.60;25.50;;;;;;;0.03;100.00;103239.00;5285607;28;20036;-72
2024/01/12 02:15:18;;;;;;;35.67;23.50;;;;;;;0.03;100.00;103238.13;5285414;28;20128;-72
2024/01/12 02:17:49;;;;;;;38.50;24.75;;;;;;;-0.02;100.00;103231.00;5284414;28;20086;-73
2024/01/12 02:20:20;;;;;;;41.30;23.50;;;;;;;0.06;100.00;103222.94;5285243;28;20025;-72
2024/01/12 02:22:52;;;;;;;38.10;24.23;;;;;;;0.05;100.00;103227.19;5285223;28;20028;-72
2024/01/12 02:25:23;;;;;;;36.33;23.47;;;;;;;0.05;100.00;103223.72;5285691;28;20209;-73
2024/01/12 02:27:55;;;;;;;38.43;24.43;;;;;;;0.03;100.00;103230.41;5285188;28;20032;-73
2024/01/12 02:30:26;;;;;;;34.87;22.70;;;;;;;-0.01;100.00;103240.47;5285403;28;20507;-73
2024/01/12 02:33:04;;;;;;;39.87;24.77;;;;;;;-0.05;100.00;103238.47;5285573;28;20089;-73
2024/01/12 02:35:35;;;;;;;41.08;22.92;;;;;;;-0.06;100.00;103238.38;5285668;28;20025;-74
2024/01/12 02:38:07;;;;;;;39.83;23.90;;;;;;;0.00;100.00;103238.81;5285076;28;20097;-72
2024/01/12 02:40:38;;;;;;;45.30;24.27;;;;;;;0.04;100.00;103233.09;5283760;28;20161;-73
2024/01/12 02:43:09;;;;;;;38.10;25.03;;;;;;;0.03;100.00;103239.00;5284350;28;20494;-73
2024/01/12 02:45:41;;;;;;;37.77;24.70;;;;;;;0.02;100.00;103237.22;5284669;28;20103;-73
2024/01/12 02:48:12;;;;;;;40.00;24.30;;;;;;;0.00;100.00;103241.38;5284766;28;20034;-73
2024/01/12 02:50:43;;;;;;;36.97;23.23;;;;;;;-0.04;100.00;103241.94;5285382;28;20035;-73
2024/01/12 02:53:17;;;;;;;37.60;23.60;;;;;;;-0.07;100.00;103222.06;5283750;28;20472;-73
2024/01/12 02:55:48;;;;;;;43.83;25.63;;;;;;;-0.01;100.00;103217.38;5285074;28;20137;-72
2024/01/12 02:58:20;;;;;;;38.33;24.37;;;;;;;-0.09;100.00;103225.34;5285112;28;20060;-73
2024/01/12 03:00:52;;;;;;;41.90;25.07;;;;;;;-0.02;100.00;103212.16;5284795;28;20024;-72
2024/01/12 03:03:23;;;;;;;48.28;26.52;;;;;;;-0.08;100.00;103215.19;5284581;28;20032;-72
2024/01/12 03:05:54;;;;;;;40.40;26.37;;;;;;;-0.06;100.00;103210.16;5284537;28;20036;-73
2024/01/12 03:08:26;;;;;;;43.53;25.57;;;;;;;-0.10;100.00;103208.16;5284602;28;20028;-73
2024/01/12 03:10:57;;;;;;;38.83;25.57;;;;;;;-0.08;100.00;103210.06;5284165;28;20040;-72
2024/01/12 03:13:29;;;;;;;46.67;26.93;;;;;;;-0.10;100.00;103206.47;5284239;28;20412;-73
2024/01/12 03:16:00;;;;;;;43.00;25.33;;;;;;;-0.06;100.00;103210.16;5284160;28;20025;-73
2024/01/12 03:18:32;;;;;;;46.67;25.43;;;;;;;-0.06;100.00;103212.72;5284817;28;20108;-72
2024/01/12 03:21:04;;;;;;;38.70;24.73;;;;;;;-0.07;100.00;103213.50;5282764;28;20035;-73
2024/01/12 03:23:35;;;;;;;40.63;24.63;;;;;;;-0.05;100.00;103211.94;5284576;28;20028;-73
2024/01/12 03:26:06;;;;;;;42.07;24.73;;;;;;;-0.09;100.00;103208.25;5284042;28;20115;-73
2024/01/12 03:28:38;;;;;;;37.43;23.57;;;;;;;-0.09;100.00;103205.69;5284060;28;20116;-73
2024/01/12 03:31:09;;;;;;;36.40;24.90;;;;;;;-0.18;100.00;103199.91;5284064;28;20024;-72
2024/01/12 03:33:40;;;;;;;43.27;25.77;;;;;;;-0.17;100.00;103205.97;5283869;28;20115;-73
2024/01/12 03:36:13;;;;;;;40.37;24.13;;;;;;;-0.13;100.00;103198.59;5283703;28;20516;-73
2024/01/12 03:38:45;;;;;;;36.75;23.52;;;;;;;-0.13;100.00;103205.38;5283313;28;20111;-72
2024/01/12 03:41:16;;;;;;;41.95;24.38;;;;;;;-0.25;100.00;103208.84;5283614;28;20528;-73
2024/01/12 03:43:48;;;;;;;39.97;24.60;;;;;;;-0.17;100.00;103201.72;5283591;28;20072;-73
2024/01/12 03:46:19;;;;;;;39.47;23.73;;;;;;;-0.17;100.00;103204.28;5283982;28;20036;-73
2024/01/12 03:48:51;;;;;;;37.13;23.93;;;;;;;-0.19;100.00;103200.72;5283785;28;20043;-72
2024/01/12 03:51:22;;;;;;;38.83;24.57;;;;;;;-0.25;100.00;103200.28;5283468;28;20033;-73
2024/01/12 03:53:53;;;;;;;37.47;23.87;;;;;;;-0.20;100.00;103194.69;5283391;28;20353;-73
2024/01/12 03:56:25;;;;;;;39.07;23.83;;;;;;;-0.19;100.00;103196.47;5283870;28;20171;-73
2024/01/12 03:58:56;;;;;;;41.80;24.57;;;;;;;-0.20;100.00;103194.69;5283539;28;20035;-72
2024/01/12 04:01:27;;;;;;;40.37;24.90;;;;;;;-0.20;100.00;103191.25;5283402;28;20036;-72
2024/01/12 04:03:59;;;;;;;42.73;24.40;;;;;;;-0.15;100.00;103189.00;5282368;28;20464;-71
2024/01/12 04:06:30;;;;;;;37.30;22.57;;;;;;;-0.21;100.00;103186.88;5283636;28;20529;-72
2024/01/12 04:09:02;;;;;;;40.00;25.40;;;;;;;-0.23;100.00;103188.47;5282609;28;20039;-72
2024/01/12 04:11:33;;;;;;;38.77;22.17;;;;;;;-0.21;100.00;103186.88;5283381;28;20047;-72
2024/01/12 04:14:05;;;;;;;42.20;24.53;;;;;;;-0.29;100.00;103188.03;5265208;28;20490;-72
2024/01/12 04:16:36;;;;;;;39.40;23.10;;;;;;;-0.27;100.00;103183.91;5283244;28;20029;-73
2024/01/12 04:19:07;;;;;;;37.57;24.53;;;;;;;-0.20;100.00;103191.25;5282784;28;20090;-72
2024/01/12 04:21:39;;;;;;;37.57;24.33;;;;;;;-0.22;100.00;103187.69;5283033;28;20025;-72
2024/01/12 04:24:11;;;;;;;39.60;25.20;;;;;;;-0.25;100.00;103188.34;5283211;28;20085;-72
2024/01/12 04:26:42;;;;;;;41.50;25.38;;;;;;;-0.19;100.00;103193.03;5282976;28;20538;-72
2024/01/12 04:29:14;;;;;;;37.23;23.73;;;;;;;-0.19;100.00;103186.22;5281662;28;20025;-72
2024/01/12 04:31:45;;;;;;;38.77;24.47;;;;;;;-0.15;100.00;103189.88;5282554;28;20033;-72
2024/01/12 04:34:16;;;;;;;37.57;23.13;;;;;;;-0.16;100.00;103194.91;5282694;28;20495;-72
2024/01/12 04:36:48;;;;;;;37.40;23.77;;;;;;;-0.14;100.00;103196.81;5282644;28;20071;-72
2024/01/12 04:39:19;;;;;;;33.97;23.53;;;;;;;-0.18;100.00;103199.91;5281661;28;20037;-72
2024/01/12 04:41:51;;;;;;;36.20;24.70;;;;;;;-0.13;100.00;103197.69;5283220;28;20032;-72
2024/01/12 04:44:22;;;;;;;37.37;22.47;;;;;;;-0.13;100.00;103195.13;5282452;28;20113;-71
2024/01/12 04:46:53;;;;;;;43.20;27.57;;;;;;;-0.22;100.00;103196.25;5282788;28;20380;-72
2024/01/12 04:49:25;;;;;;;37.63;23.77;;;;;;;-0.25;100.00;103193.47;5282441;28;20560;-72
2024/01/12 04:51:56;;;;;;;42.90;23.90;;;;;;;-0.25;100.00;103198.59;5286435;28;20621;-72
2024/01/12 04:54:27;;;;;;;41.53;25.17;;;;;;;-0.30;100.00;103202.53;5286859;28;20437;-72
2024/01/12 04:56:59;;;;;;;45.13;25.43;;;;;;;-0.24;100.00;103199.50;5286912;28;20036;-72
2024/01/12 04:59:30;;;;;;;40.23;24.70;;;;;;;-0.24;100.00;103194.34;5287143;28;20025;-72
2024/01/12 05:02:02;;;;;;;34.53;23.33;;;;;;;-0.22;100.00;103191.13;5287455;28;20028;-72
2024/01/12 05:04:33;;;;;;;36.63;23.33;;;;;;;-0.20;100.00;103196.38;5286811;28;20056;-72
2024/01/12 05:07:05;;;;;;;40.10;24.03;;;;;;;-0.23;100.00;103196.16;5286779;28;20080;-72
2024/01/12 05:09:36;;;;;;;37.93;23.20;;;;;;;-0.16;100.00;103200.94;5287064;28;20033;-71
2024/01/12 05:12:08;;;;;;;42.83;23.80;;;;;;;-0.21;100.00;103195.50;5285467;28;20033;-72
2024/01/12 05:14:39;;;;;;;38.60;24.80;;;;;;;-0.17;100.00;103185.44;5286576;28;20036;-71
2024/01/12 05:17:10;;;;;;;38.87;23.37;;;;;;;-0.12;100.00;103173.84;5286467;28;20036;-71
2024/01/12 05:19:42;;;;;;;37.23;23.57;;;;;;;-0.19;100.00;103173.41;5286341;28;20020;-72
2024/01/12 05:22:13;;;;;;;38.73;23.20;;;;;;;-0.10;100.00;103167.13;5286514;28;20033;-72
2024/01/12 05:24:45;;;;;;;40.00;23.00;;;;;;;-0.05;100.00;103176.03;5286625;28;20024;-72
2024/01/12 05:27:16;;;;;;;41.80;25.60;;;;;;;-0.10;100.00;103178.28;5286383;28;20047;-72
2024/01/12 05:29:47;;;;;;;39.17;22.47;;;;;;;-0.01;100.00;103180.59;5286266;28;20078;-72
2024/01/12 05:32:19;;;;;;;44.27;23.37;;;;;;;-0.08;100.00;103180.94;5286503;28;20028;-72
2024/01/12 05:34:50;;;;;;;33.63;23.00;;;;;;;-0.05;100.00;103174.38;5286156;28;20471;-72
2024/01/12 05:37:22;;;;;;;37.97;22.60;;;;;;;-0.05;100.00;103169.25;5285917;28;20025;-72
2024/01/12 05:39:53;;;;;;;38.53;21.67;;;;;;;-0.04;100.00;103177.81;5284824;28;20416;-72
2024/01/12 05:42:25;;;;;;;39.63;24.17;;;;;;;-0.06;100.00;103172.59;5286146;28;20036;-72
2024/01/12 05:44:56;;;;;;;38.17;22.33;;;;;;;-0.10;100.00;103170.56;5286714;28;20086;-72
2024/01/12 05:47:28;;;;;;;38.73;23.07;;;;;;;0.00;100.00;103179.84;5286010;28;20037;-72
2024/01/12 05:49:59;;;;;;;36.97;21.97;;;;;;;-0.01;100.00;103185.72;5286036;28;20127;-72
2024/01/12 05:52:32;;;;;;;33.97;22.10;;;;;;;0.01;100.00;103181.59;5286360;28;20032;-72
2024/01/12 05:55:03;;;;;;;;;;;;;;;0.08;100.00;103183.81;5286874;28;20064;-72
2024/01/12 05:57:35;;;;;;;32.78;20.00;;;;;;;0.06;100.00;103177.66;5285417;28;19916;-71
2024/01/12 06:00:08;;;;;;;35.20;20.90;;;;;;;0.03;100.00;103190.28;5286176;28;20040;-72
2024/01/12 06:02:39;;;;;;;;;;;;;;;0.13;100.00;103191.78;5284714;28;20082;-72
2024/01/12 06:05:10;;;;;;;37.60;20.40;;;;;;;0.03;100.00;103191.94;5285022;28;19916;-72
2024/01/12 06:07:42;;;;;;;38.20;20.90;;;;;;;0.04;100.00;103196.31;5285364;28;20025;-72
2024/01/12 06:10:13;;;;;;;37.10;19.53;;;;;;;0.03;100.00;103202.22;5285419;28;20024;-72
2024/01/12 06:12:44;;;;;;;33.20;18.97;;;;;;;0.03;100.00;103199.66;5285267;28;20028;-72
2024/01/12 06:15:16;;;;;;;29.83;19.00;;;;;;;0.02;100.00;103195.28;5285494;28;20032;-73
2024/01/12 06:17:48;;;;;;;38.67;20.47;;;;;;;-0.01;100.00;103199.44;5285409;28;20025;-72
2024/01/12 06:20:20;;;;;;;35.80;17.92;;;;;;;0.05;100.00;103198.06;5285168;28;20120;-73
2024/01/12 06:22:51;;;;;;;29.93;18.33;;;;;;;0.06;100.00;103203.31;5284495;28;20189;-73
2024/01/12 06:25:23;;;;;;;35.10;20.87;;;;;;;0.09;100.00;103203.53;5283880;28;20024;-72
2024/01/12 06:27:54;;;;;;;34.10;17.77;;;;;;;0.13;100.00;103200.41;5285664;28;20101;-72
2024/01/12 06:30:26;;;;;;;29.53;17.33;;;;;;;0.13;100.00;103200.41;5284057;28;20063;-72
2024/01/12 06:32:58;;;;;;;29.97;17.23;;;;;;;0.11;100.00;103203.63;5285615;28;20139;-72
2024/01/12 06:35:30;;;;;;;29.65;17.77;;;;;;;0.14;100.00;103207.28;5284809;28;20028;-72
2024/01/12 06:38:02;;;;;;;34.30;18.77;;;;;;;0.16;100.00;103210.88;5283414;28;20086;-72
2024/01/12 06:40:33;;;;;;;30.73;17.63;;;;;;;0.17;100.00;103214.31;5284595;28;20105;-72
2024/01/12 06:43:04;;;;;;;31.20;16.63;;;;;;;0.18;100.00;103213.53;5283645;28;20785;-71
2024/01/12 06:45:36;;;;;;;32.47;17.63;;;;;;;0.21;100.00;103224.00;5284890;28;20110;-73
2024/01/12 06:48:07;;;;;;;34.93;17.63;;;;;;;0.20;100.00;103214.53;5283930;28;20435;-72
2024/01/12 06:50:38;;;;;;;32.70;16.00;;;;;;;0.21;100.00;103216.31;5283334;28;20076;-71
2024/01/12 06:53:10;;;;;;;28.17;16.80;;;;;;;0.17;100.00;103214.31;5284888;28;20135;-72
2024/01/12 06:55:41;;;;;;;33.53;15.73;;;;;;;0.20;100.00;103217.09;5284003;28;20502;-72
2024/01/12 06:58:13;;;;;;;27.27;15.43;;;;;;;0.23;100.00;103221.56;5266516;28;20086;-72
2024/01/12 07:00:44;;;;;;;32.83;17.43;;;;;;;0.18;100.00;103231.50;5282998;28;20123;-72
2024/01/12 07:03:15;;;;;;;30.03;16.30;;;;;;;0.16;100.00;103222.78;5284475;28;20472;-72
2024/01/12 07:05:47;;;;;;;31.10;16.60;;;;;;;0.19;100.00;103225.56;5284050;28;20123;-72
2024/01/12 07:08:18;;;;;;;27.70;15.70;;;;;;;0.24;100.00;103226.78;5284567;28;20071;-72
2024/01/12 07:10:49;;;;;;;36.73;17.70;;;;;;;0.22;100.00;103218.09;5266224;28;20040;-71
2024/01/12 07:13:21;;;;;;;35.23;16.57;;;;;;;0.27;100.00;103215.84;5284412;28;20415;-72
2024/01/12 07:15:52;;;;;;;26.37;14.73;;;;;;;0.25;100.00;103212.28;5284133;28;20086;-72
2024/01/12 07:18:24;;;;;;;34.30;17.67;;;;;;;0.25;100.00;103222.53;5282663;28;20064;-72
2024/01/12 07:20:57;;;;;;;33.07;16.67;;;;;;;0.26;100.00;103214.94;5284018;28;20436;-73
2024/01/12 07:23:30;;;;;;;30.58;16.40;;;;;;;0.28;100.00;103205.69;5284008;28;20081;-72
2024/01/12 07:26:02;;;;;;;29.08;14.63;;;;;;;0.31;100.00;103202.44;5284613;28;20363;-73
2024/01/12 07:28:33;;;;;;;32.00;17.10;;;;;;;0.33;100.00;103193.16;5284173;28;20029;-73
2024/01/12 07:31:04;;;;;;;30.97;15.93;;;;;;;0.35;100.00;103189.03;5282150;28;20090;-72
2024/01/12 07:33:36;;;;;;;36.97;16.33;;;;;;;0.37;100.00;103192.56;5283847;28;20484;-71
2024/01/12 07:36:08;;;;;;;29.67;15.63;;;;;;;0.39;100.00;103197.81;5283938;28;20037;-71
2024/01/12 07:38:40;;;;;;;34.70;16.75;;;;;;;0.39;100.00;103196.16;5283229;28;20036;-71
2024/01/12 07:41:11;;;;;;;31.63;16.20;;;;;;;0.44;100.00;103199.03;5283388;28;20380;-71
2024/01/12 07:43:42;;;;;;;31.07;15.70;;;;;;;0.46;100.00;103188.06;5283481;28;20044;-72
2024/01/12 07:46:18;;;;;;;31.33;16.03;;;;;;;0.47;100.00;103194.13;5282183;28;20029;-72
2024/01/12 07:48:51;;;;;;;30.98;16.42;;;;;;;0.44;100.00;103197.34;5283208;28;20054;-71
2024/01/12 07:51:22;;;;;;;34.28;14.63;;;;;;;0.48;100.00;103201.91;5282352;28;20029;-72
2024/01/12 07:53:54;;;;;;;33.60;14.53;;;;;;;0.45;100.00;103199.13;5283035;28;20032;-72
2024/01/12 07:56:25;;;;;;;28.00;15.93;;;;;;;0.51;100.00;103203.78;5284178;28;20033;-72
2024/01/12 07:58:57;;;;;;;31.83;14.60;;;;;;;0.52;100.00;103187.59;5283251;28;20040;-71
2024/01/12 08:01:29;;;;;;;32.17;15.13;;;;;;;0.56;100.00;103184.44;5283282;28;20036;-72
2024/01/12 08:04:00;;;;;;;30.53;14.77;;;;;;;0.54;100.00;103186.03;5283284;28;20048;-71
2024/01/12 08:06:31;;;;;;;28.40;16.07;;;;;;;0.60;100.00;103185.56;5284579;28;20056;-71
2024/01/12 08:09:03;;;;;;;34.00;16.10;;;;;;;0.62;100.00;103177.16;5283437;28;20039;-71
2024/01/12 08:11:34;;;;;;;39.70;16.47;;;;;;;0.63;100.00;103185.72;5283332;28;20056;-72
2024/01/12 08:14:06;;;;;;;36.60;14.20;;;;;;;0.64;100.00;103185.84;5283835;28;20035;-71
2024/01/12 08:16:37;;;;;;;33.57;17.67;;;;;;;0.69;100.00;103194.75;5283183;28;20024;-71
2024/01/12 08:19:09;;;;;;;30.00;14.07;;;;;;;0.73;100.00;103185.56;5282997;28;20028;-71
2024/01/12 08:21:40;;;;;;;26.87;13.87;;;;;;;0.76;100.00;103195.13;5283381;28;20074;-71
2024/01/12 08:24:11;;;;;;;27.93;15.23;;;;;;;0.75;100.00;103196.81;5283036;28;20066;-71
2024/01/12 08:26:45;;;;;;;28.03;14.37;;;;;;;0.78;100.00;103191.91;5282588;28;20526;-71
2024/01/12 08:29:17;;;;;;;35.22;14.93;;;;;;;0.81;100.00;103201.50;5282895;28;20046;-71
2024/01/12 08:31:51;;;;;;;26.77;13.70;;;;;;;0.85;100.00;103193.19;5282236;28;20111;-72
2024/01/12 08:34:22;;;;;;;32.50;14.02;;;;;;;0.80;100.00;103195.44;5282922;28;20032;-72
2024/01/12 08:36:53;;;;;;;30.30;14.53;;;;;;;0.88;100.00;103203.66;5283265;28;20050;-73
2024/01/12 08:39:26;;;;;;;33.43;15.23;;;;;;;0.93;100.00;103202.28;5283253;28;20309;-73
2024/01/12 08:41:57;;;;;;;31.05;15.18;;;;;;;0.92;100.00;103210.78;5282854;28;20035;-73
2024/01/12 08:44:29;;;;;;;31.90;15.07;;;;;;;0.95;100.00;103213.56;5282800;28;20033;-72
2024/01/12 08:47:00;;;;;;;27.23;13.60;;;;;;;0.97;100.00;103217.13;5282830;28;20029;-73
2024/01/12 08:49:31;;;;;;;31.80;14.83;;;;;;;1.05;100.00;103220.19;5283017;28;20431;-72
2024/01/12 08:52:03;;;;;;;33.77;15.57;;;;;;;1.04;100.00;103213.28;5282687;28;20064;-71
2024/01/12 08:54:35;;;;;;;30.43;15.13;;;;;;;1.02;100.00;103217.44;5282123;28;20492;-71
2024/01/12 08:57:06;;;;;;;30.00;15.33;;;;;;;1.09;100.00;103209.31;5283415;28;20056;-72
2024/01/12 08:59:37;;;;;;;29.93;16.47;;;;;;;1.08;100.00;103203.28;5281322;28;20167;-71
2024/01/12 09:02:09;;;;;;;31.63;17.07;;;;;;;1.16;100.00;103206.38;5281291;28;20408;-71
2024/01/12 09:04:40;;;;;;;24.90;15.27;;;;;;;1.24;100.00;103202.63;5282733;28;20353;-72
2024/01/12 09:07:11;;;;;;;38.63;15.53;;;;;;;1.23;100.00;103213.66;5282938;28;20401;-72
2024/01/12 09:09:44;;;;;;;32.20;16.40;;;;;;;1.24;100.00;103209.41;5282478;28;20024;-72
2024/01/12 09:12:16;;;;;;;29.27;16.88;;;;;;;1.26;100.00;103213.00;5283079;28;20059;-72
2024/01/12 09:14:47;;;;;;;26.20;17.10;;;;;;;1.35;100.00;103203.28;5282660;28;20029;-72
2024/01/12 09:17:18;;;;;;;35.17;17.10;;;;;;;1.36;100.00;103212.78;5282438;28;20116;-72
2024/01/12 09:19:50;;;;;;;33.13;15.57;;;;;;;1.36;100.00;103209.31;5282493;28;20036;-72
2024/01/12 09:22:22;;;;;;;31.38;15.88;;;;;;;1.34;100.00;103211.81;5281873;28;20086;-72
2024/01/12 09:24:54;;;;;;;29.80;15.77;;;;;;;1.35;100.00;103218.69;5281073;28;20033;-72
2024/01/12 09:27:25;;;;;;;32.33;16.10;;;;;;;1.36;100.00;103214.47;5281130;28;20032;-72
2024/01/12 09:29:56;;;;;;;30.83;14.93;;;;;;;1.36;100.00;103210.22;5282432;28;20525;-72
2024/01/12 09:32:28;;;;;;;35.57;15.53;;;;;;;1.41;100.00;103213.06;5282963;28;20032;-72
2024/01/12 09:34:59;;;;;;;41.27;16.57;;;;;;;1.48;100.00;103206.63;5282817;28;20036;-71
2024/01/12 09:37:30;;;;;;;37.03;15.87;;;;;;;1.54;100.00;103213.06;5285183;28;20148;-72
2024/01/12 09:40:02;;;;;;;28.57;13.83;;;;;;;1.55;100.00;103219.97;5286129;28;20035;-72
2024/01/12 09:42:34;;;;;;;35.40;15.83;;;;;;;1.58;100.00;103230.47;5285847;28;20028;-72
2024/01/12 09:45:05;;;;;;;34.40;14.53;;;;;;;1.62;100.00;103218.69;5286173;28;20033;-72
2024/01/12 09:47:37;;;;;;;31.00;14.07;;;;;;;1.64;100.00;103219.66;5285635;28;20034;-72
2024/01/12 09:50:10;;;;;;;32.33;13.97;;;;;;;1.62;100.00;103221.25;5286055;28;20357;-72
2024/01/12 09:52:41;;;;;;;29.65;13.27;;;;;;;1.57;100.00;103217.50;5285944;28;20024;-71
2024/01/12 09:55:13;;;;;;;24.20;13.83;;;;;;;1.58;100.00;103214.16;5285906;28;20066;-71
2024/01/12 09:57:45;;;;;;;25.33;12.97;;;;;;;1.52;100.00;103209.50;5285599;28;20040;-71
2024/01/12 10:00:19;;;;;;;26.33;13.15;;;;;;;1.56;100.00;103214.06;5286254;28;20136;-72
2024/01/12 10:02:51;;;;;;;31.75;14.32;;;;;;;1.62;100.00;103203.25;5284424;28;20028;-72
2024/01/12 10:05:22;;;;;;;21.63;12.27;;;;;;;1.60;100.00;103208.31;5284379;28;20376;-72
2024/01/12 10:07:53;;;;;;;29.70;12.90;;;;;;;1.66;100.00;103202.69;5286072;28;20040;-72
2024/01/12 10:10:25;;;;;;;24.20;12.37;;;;;;;1.71;100.00;103209.00;5285613;28;20028;-71
2024/01/12 10:12:56;;;;;;;30.47;13.73;;;;;;;1.78;100.00;103208.56;5284475;28;20041;-72
2024/01/12 10:15:29;;;;;;;29.03;12.43;;;;;;;1.86;100.00;103203.03;5285582;28;20029;-72
2024/01/12 10:18:01;;;;;;;25.17;12.88;;;;;;;1.96;100.00;103211.38;5284174;28;20460;-72
2024/01/12 10:20:36;;;;;;;27.40;12.60;;;;;;;2.00;100.00;103217.63;5285458;28;20040;-72
2024/01/12 10:23:08;;;;;;;24.35;12.25;;;;;;;2.07;100.00;103216.31;5285943;28;20036;-71
2024/01/12 10:25:39;;;;;;;28.00;13.13;;;;;;;2.05;100.00;103215.34;5285272;28;20044;-73
2024/01/12 10:28:17;;;;;;;35.90;13.70;;;;;;;2.01;100.00;103219.38;5285498;28;20081;-72
2024/01/12 10:30:48;;;;;;;33.05;12.35;;;;;;;2.02;100.00;103215.16;5285262;28;20035;-72
2024/01/12 10:33:20;;;;;;;25.77;11.27;;;;;;;2.03;100.00;103215.25;5285572;28;20040;-71
2024/01/12 10:36:10;;;;;;;26.27;11.60;;;;;;;2.06;100.00;103217.09;5286485;28;20483;-72
2024/01/12 10:38:44;;;;;;;28.33;11.45;;;;;;;2.08;100.00;103210.38;5286840;28;20025;-72
2024/01/12 10:41:21;;;;;;;23.88;12.48;;;;;;;2.11;100.00;103197.69;5286631;28;20491;-71
2024/01/12 10:43:56;;;;;;;27.13;12.05;;;;;;;2.03;100.00;103192.09;5287578;28;20036;-72
2024/01/12 10:46:47;;;;;;;23.52;11.70;;;;;;;2.13;100.00;103189.28;5284895;28;20075;-70
2024/01/12 10:49:20;;;;;;;22.65;11.63;;;;;;;2.06;100.00;103193.94;5285088;28;20071;-72
2024/01/12 10:52:21;;;;;;;26.40;12.93;;;;;;;2.12;100.00;103192.63;5284618;28;20103;-71
2024/01/12 10:55:13;;;;;;;24.25;11.82;;;;;;;2.17;100.00;103191.25;5285050;28;20025;-72
2024/01/12 10:57:45;;;;;;;29.98;11.95;;;;;;;2.18;100.00;103185.28;5284345;28;20052;-73
2024/01/12 11:00:19;;;;;;;21.05;9.98;;;;;;;2.16;100.00;103183.44;5284732;28;20032;-70
2024/01/12 11:02:51;;;;;;;21.17;10.45;;;;;;;2.14;100.00;103190.16;5284617;28;20071;-72
2024/01/12 11:05:26;;;;;;;32.25;12.65;;;;;;;2.04;100.00;103186.13;5284789;28;20025;-72
2024/01/12 11:07:59;;;;;;;24.33;11.18;;;;;;;2.05;100.00;103187.91;5284296;28;20028;-71
2024/01/12 11:10:33;;;;;;;22.20;11.82;;;;;;;2.11;100.00;103182.25;5285164;28;20349;-72
2024/01/12 11:13:05;;;;;;;27.52;11.00;;;;;;;2.13;100.00;103180.66;5284035;28;20032;-72
2024/01/12 11:15:39;;;;;;;16.95;11.05;;;;;;;2.12;100.00;103178.88;5284312;28;20024;-72
2024/01/12 11:18:10;;;;;;;26.23;11.27;;;;;;;2.14;100.00;103173.03;5284345;28;20101;-72
2024/01/12 11:20:43;;;;;;;24.13;11.37;;;;;;;2.10;100.00;103171.06;5284640;28;20032;-72
2024/01/12 11:23:16;;;;;;;25.83;12.45;;;;;;;2.10;100.00;103171.06;5284129;28;20038;-72
2024/01/12 11:25:48;;;;;;;30.02;13.02;;;;;;;2.18;100.00;103174.09;5284259;28;20029;-71
2024/01/12 11:28:20;;;;;;;20.70;12.67;;;;;;;2.22;100.00;103173.47;5283929;28;20109;-71